sensor_id;sensor_type;location;lat;lon;timestamp;pressure;altitude;pressure_sealevel;temperature;humidity
54822;BME280;41299;43.546;16.426;2022-10-26T00:02:12;102117.22;;;15.53;100.00
54822;BME280;41299;43.546;16.426;2022-10-26T00:04:37;102115.50;;;15.52;100.00
54822;BME280;41299;43.546;16.426;2022-10-26T00:07:03;102112.03;;;15.50;100.00
54822;BME280;41299;43.546;16.426;2022-10-26T00:09:28;102113.72;;;15.45;100.00
54822;BME280;41299;43.546;16.426;2022-10-26T00:11:53;102114.53;;;15.39;100.00
54822;BME280;41299;43.546;16.426;2022-10-26T00:14:18;102105.91;;;15.43;100.00
54822;BME280;41299;43.546;16.426;2022-10-26T00:16:44;102106.75;;;15.44;100.00
54822;BME280;41299;43.546;16.426;2022-10-26T00:19:09;102114.50;;;15.36;100.00
54822;BME280;41299;43.546;16.426;2022-10-26T00:21:34;102113.63;;;15.35;100.00
54822;BME280;41299;43.546;16.426;2022-10-26T00:23:59;102107.59;;;15.39;100.00
54822;BME280;41299;43.546;16.426;2022-10-26T00:26:25;102116.25;;;15.40;100.00
54822;BME280;41299;43.546;16.426;2022-10-26T00:28:53;102108.41;;;15.34;100.00
54822;BME280;41299;43.546;16.426;2022-10-26T00:31:19;102110.97;;;15.28;100.00
54822;BME280;41299;43.546;16.426;2022-10-26T00:33:45;102113.56;;;15.28;100.00
54822;BME280;41299;43.546;16.426;2022-10-26T00:36:10;102112.72;;;15.27;100.00
54822;BME280;41299;43.546;16.426;2022-10-26T00:38:37;102111.81;;;15.25;100.00
54822;BME280;41299;43.546;16.426;2022-10-26T00:41:03;102113.56;;;15.28;100.00
54822;BME280;41299;43.546;16.426;2022-10-26T00:45:54;102117.84;;;15.19;100.00
54822;BME280;41299;43.546;16.426;2022-10-26T00:50:46;102114.28;;;15.11;100.00
54822;BME280;41299;43.546;16.426;2022-10-26T00:53:12;102116.03;;;15.12;100.00
54822;BME280;41299;43.546;16.426;2022-10-26T00:55:37;102117.78;;;15.11;100.00
54822;BME280;41299;43.546;16.426;2022-10-26T00:58:05;102116.91;;;15.11;100.00
54822;BME280;41299;43.546;16.426;2022-10-26T01:00:30;102116.00;;;15.07;100.00
54822;BME280;41299;43.546;16.426;2022-10-26T01:02:56;102117.66;;;14.99;100.00
54822;BME280;41299;43.546;16.426;2022-10-26T01:05:22;102118.63;;;15.09;100.00
54822;BME280;41299;43.546;16.426;2022-10-26T01:07:48;102107.25;;;14.97;100.00
54822;BME280;41299;43.546;16.426;2022-10-26T01:10:14;102116.81;;;15.00;100.00
54822;BME280;41299;43.546;16.426;2022-10-26T01:12:40;102113.38;;;15.03;100.00
54822;BME280;41299;43.546;16.426;2022-10-26T01:15:05;102119.47;;;15.08;100.00
54822;BME280;41299;43.546;16.426;2022-10-26T01:17:47;102119.50;;;15.11;100.00
54822;BME280;41299;43.546;16.426;2022-10-26T01:23:28;102112.47;;;15.01;100.00
54822;BME280;41299;43.546;16.426;2022-10-26T01:25:49;102119.44;;;15.02;100.00
54822;BME280;41299;43.546;16.426;2022-10-26T01:31:00;102116.78;;;14.98;100.00
54822;BME280;41299;43.546;16.426;2022-10-26T01:33:28;102114.16;;;14.95;100.00
54822;BME280;41299;43.546;16.426;2022-10-26T01:41:01;102114.09;;;14.89;100.00
54822;BME280;41299;43.546;16.426;2022-10-26T01:43:29;102110.56;;;14.84;100.00
54822;BME280;41299;43.546;16.426;2022-10-26T01:45:57;102095.88;;;14.84;100.00
54822;BME280;41299;43.546;16.426;2022-10-26T01:48:22;102107.16;;;14.85;100.00
54822;BME280;41299;43.546;16.426;2022-10-26T01:50:49;102101.97;;;14.85;100.00
54822;BME280;41299;43.546;16.426;2022-10-26T01:53:17;102109.69;;;14.82;100.00
54822;BME280;41299;43.546;16.426;2022-10-26T01:55:49;102096.75;;;14.83;100.00
54822;BME280;41299;43.546;16.426;2022-10-26T02:00:56;102098.44;;;14.83;100.00
54822;BME280;41299;43.546;16.426;2022-10-26T02:03:26;102107.97;;;14.81;100.00
54822;BME280;41299;43.546;16.426;2022-10-26T02:06:21;102095.84;;;14.80;100.00
54822;BME280;41299;43.546;16.426;2022-10-26T02:08:57;102088.06;;;14.80;100.00
54822;BME280;41299;43.546;16.426;2022-10-26T02:11:37;102089.72;;;14.75;100.00
54822;BME280;41299;43.546;16.426;2022-10-26T02:16:54;102096.56;;;14.72;100.00
54822;BME280;41299;43.546;16.426;2022-10-26T02:19:27;102087.03;;;14.67;100.00
54822;BME280;41299;43.546;16.426;2022-10-26T02:21:58;102079.34;;;14.75;100.00
54822;BME280;41299;43.546;16.426;2022-10-26T02:24:24;102081.84;;;14.68;100.00
54822;BME280;41299;43.546;16.426;2022-10-26T02:26:51;102085.28;;;14.66;100.00
54822;BME280;41299;43.546;16.426;2022-10-26T02:29:17;102073.13;;;14.62;100.00
54822;BME280;41299;43.546;16.426;2022-10-26T02:31:44;102076.59;;;14.64;100.00
54822;BME280;41299;43.546;16.426;2022-10-26T02:34:11;102081.72;;;14.57;100.00
54822;BME280;41299;43.546;16.426;2022-10-26T02:36:38;102076.56;;;14.61;100.00
54822;BME280;41299;43.546;16.426;2022-10-26T02:39:05;102086.06;;;14.57;100.00
54822;BME280;41299;43.546;16.426;2022-10-26T02:41:33;102085.13;;;14.52;100.00
54822;BME280;41299;43.546;16.426;2022-10-26T02:44:03;102090.38;;;14.56;100.00
54822;BME280;41299;43.546;16.426;2022-10-26T02:46:31;102079.13;;;14.57;100.00
54822;BME280;41299;43.546;16.426;2022-10-26T02:48:56;102082.50;;;14.50;100.00
54822;BME280;41299;43.546;16.426;2022-10-26T02:51:43;102087.78;;;14.56;100.00
54822;BME280;41299;43.546;16.426;2022-10-26T02:54:10;102079.91;;;14.50;100.00
54822;BME280;41299;43.546;16.426;2022-10-26T02:59:12;102089.41;;;14.46;100.00
54822;BME280;41299;43.546;16.426;2022-10-26T03:01:39;102097.16;;;14.45;100.00
54822;BME280;41299;43.546;16.426;2022-10-26T03:04:05;102092.88;;;14.49;100.00
54822;BME280;41299;43.546;16.426;2022-10-26T03:06:31;102090.28;;;14.49;100.00
54822;BME280;41299;43.546;16.426;2022-10-26T03:08:56;102091.97;;;14.42;100.00
54822;BME280;41299;43.546;16.426;2022-10-26T03:11:21;102093.72;;;14.46;100.00
54822;BME280;41299;43.546;16.426;2022-10-26T03:13:46;102089.34;;;14.43;100.00
54822;BME280;41299;43.546;16.426;2022-10-26T03:16:12;102093.66;;;14.40;100.00
54822;BME280;41299;43.546;16.426;2022-10-26T03:18:37;102090.97;;;14.32;100.00
54822;BME280;41299;43.546;16.426;2022-10-26T03:21:02;102102.28;;;14.39;100.00
54822;BME280;41299;43.546;16.426;2022-10-26T03:23:28;102102.28;;;14.39;100.00
54822;BME280;41299;43.546;16.426;2022-10-26T03:25:56;102116.06;;;14.35;100.00
54822;BME280;41299;43.546;16.426;2022-10-26T03:28:22;102116.16;;;14.39;100.00
54822;BME280;41299;43.546;16.426;2022-10-26T03:30:47;102113.56;;;14.39;100.00
54822;BME280;41299;43.546;16.426;2022-10-26T03:33:12;102108.38;;;14.39;100.00
54822;BME280;41299;43.546;16.426;2022-10-26T03:35:38;102111.91;;;14.48;100.00
54822;BME280;41299;43.546;16.426;2022-10-26T03:38:03;102098.13;;;14.55;100.00
54822;BME280;41299;43.546;16.426;2022-10-26T03:40:28;102096.41;;;14.54;100.00
54822;BME280;41299;43.546;16.426;2022-10-26T03:42:54;102100.66;;;14.47;100.00
54822;BME280;41299;43.546;16.426;2022-10-26T03:45:19;102106.69;;;14.46;100.00
54822;BME280;41299;43.546;16.426;2022-10-26T03:47:48;102115.31;;;14.43;100.00
54822;BME280;41299;43.546;16.426;2022-10-26T03:50:14;102108.38;;;14.42;100.00
54822;BME280;41299;43.546;16.426;2022-10-26T03:52:40;102107.41;;;14.32;100.00
54822;BME280;41299;43.546;16.426;2022-10-26T03:55:05;102113.50;;;14.33;100.00
54822;BME280;41299;43.546;16.426;2022-10-26T03:57:31;102116.09;;;14.36;100.00
54822;BME280;41299;43.546;16.426;2022-10-26T03:59:56;102117.06;;;14.44;100.00
54822;BME280;41299;43.546;16.426;2022-10-26T04:02:21;102116.25;;;14.47;100.00
54822;BME280;41299;43.546;16.426;2022-10-26T04:04:47;102111.97;;;14.54;100.00
54822;BME280;41299;43.546;16.426;2022-10-26T04:07:12;102107.66;;;14.54;100.00
54822;BME280;41299;43.546;16.426;2022-10-26T04:09:37;102111.91;;;14.48;100.00
54822;BME280;41299;43.546;16.426;2022-10-26T04:12:03;102109.31;;;14.48;100.00
54822;BME280;41299;43.546;16.426;2022-10-26T04:14:28;102111.03;;;14.45;100.00
54822;BME280;41299;43.546;16.426;2022-10-26T04:16:53;102104.06;;;14.41;100.00
54822;BME280;41299;43.546;16.426;2022-10-26T04:19:18;102106.66;;;14.41;100.00
54822;BME280;41299;43.546;16.426;2022-10-26T04:21:44;102107.53;;;14.42;100.00
54822;BME280;41299;43.546;16.426;2022-10-26T04:24:09;102108.38;;;14.39;100.00
54822;BME280;41299;43.546;16.426;2022-10-26T04:26:35;102117.84;;;14.37;100.00
54822;BME280;41299;43.546;16.426;2022-10-26T04:29:00;102111.78;;;14.35;100.00
54822;BME280;41299;43.546;16.426;2022-10-26T04:31:28;102117.06;;;14.44;100.00
54822;BME280;41299;43.546;16.426;2022-10-26T04:33:54;102120.47;;;14.40;100.00
54822;BME280;41299;43.546;16.426;2022-10-26T04:36:19;102129.22;;;14.49;100.00
54822;BME280;41299;43.546;16.426;2022-10-26T04:38:44;102130.94;;;14.46;100.00
54822;BME280;41299;43.546;16.426;2022-10-26T04:41:12;102120.47;;;14.40;100.00
54822;BME280;41299;43.546;16.426;2022-10-26T04:43:37;102119.56;;;14.35;100.00
54822;BME280;41299;43.546;16.426;2022-10-26T04:46:02;102123.03;;;14.37;100.00
54822;BME280;41299;43.546;16.426;2022-10-26T04:48:27;102114.38;;;14.35;100.00
54822;BME280;41299;43.546;16.426;2022-10-26T04:50:53;102122.09;;;14.32;100.00
54822;BME280;41299;43.546;16.426;2022-10-26T04:53:18;102120.34;;;14.31;100.00
54822;BME280;41299;43.546;16.426;2022-10-26T04:55:43;102116.88;;;14.29;100.00
54822;BME280;41299;43.546;16.426;2022-10-26T04:58:09;102122.06;;;14.29;100.00
54822;BME280;41299;43.546;16.426;2022-10-26T05:00:34;102128.94;;;14.24;100.00
54822;BME280;41299;43.546;16.426;2022-10-26T05:03:00;102138.41;;;14.20;100.00
54822;BME280;41299;43.546;16.426;2022-10-26T05:05:25;102142.56;;;14.09;100.00
54822;BME280;41299;43.546;16.426;2022-10-26T05:07:54;102150.38;;;14.10;100.00
54822;BME280;41299;43.546;16.426;2022-10-26T05:10:20;102142.69;;;14.16;100.00
54822;BME280;41299;43.546;16.426;2022-10-26T05:12:49;102145.28;;;14.16;100.00
54822;BME280;41299;43.546;16.426;2022-10-26T05:15:14;102141.81;;;14.16;100.00
54822;BME280;41299;43.546;16.426;2022-10-26T05:17:40;102144.41;;;14.16;100.00
54822;BME280;41299;43.546;16.426;2022-10-26T05:20:05;102137.53;;;14.19;100.00
54822;BME280;41299;43.546;16.426;2022-10-26T05:22:34;102136.63;;;14.16;100.00
54822;BME280;41299;43.546;16.426;2022-10-26T05:24:59;102135.00;;;14.24;100.00
54822;BME280;41299;43.546;16.426;2022-10-26T05:27:24;102133.38;;;14.34;100.00
54822;BME280;41299;43.546;16.426;2022-10-26T05:29:50;102133.47;;;14.43;100.00
54822;BME280;41299;43.546;16.426;2022-10-26T05:32:15;102135.28;;;14.49;100.00
54822;BME280;41299;43.546;16.426;2022-10-26T05:34:40;102132.66;;;14.46;100.00
54822;BME280;41299;43.546;16.426;2022-10-26T05:37:06;102130.94;;;14.50;100.00
54822;BME280;41299;43.546;16.426;2022-10-26T05:39:31;102132.75;;;14.54;100.00
54822;BME280;41299;43.546;16.426;2022-10-26T05:41:56;102143.03;;;14.44;100.00
54822;BME280;41299;43.546;16.426;2022-10-26T05:44:21;102141.25;;;14.40;100.00
54822;BME280;41299;43.546;16.426;2022-10-26T05:46:47;102147.41;;;14.50;100.00
54822;BME280;41299;43.546;16.426;2022-10-26T05:49:12;102144.78;;;14.49;100.00
54822;BME280;41299;43.546;16.426;2022-10-26T05:51:37;102151.66;;;14.42;100.00
54822;BME280;41299;43.546;16.426;2022-10-26T05:54:03;102156.84;;;14.43;100.00
54822;BME280;41299;43.546;16.426;2022-10-26T05:56:38;102158.69;;;14.51;100.00
54822;BME280;41299;43.546;16.426;2022-10-26T05:59:05;102157.84;;;14.53;100.00
54822;BME280;41299;43.546;16.426;2022-10-26T06:06:56;102160.41;;;14.52;100.00
54822;BME280;41299;43.546;16.426;2022-10-26T06:09:22;102162.09;;;14.50;100.00
54822;BME280;41299;43.546;16.426;2022-10-26T06:11:48;102167.38;;;14.54;100.00
54822;BME280;41299;43.546;16.426;2022-10-26T06:14:13;102162.22;;;14.59;100.00
54822;BME280;41299;43.546;16.426;2022-10-26T06:29:43;102169.56;;;14.94;100.00
54822;BME280;41299;43.546;16.426;2022-10-26T06:32:10;102164.47;;;15.07;100.00
54822;BME280;41299;43.546;16.426;2022-10-26T06:34:36;102160.25;;;15.17;100.00
54822;BME280;41299;43.546;16.426;2022-10-26T06:37:07;102160.28;;;15.21;100.00
54822;BME280;41299;43.546;16.426;2022-10-26T06:39:34;102158.63;;;15.30;100.00
54822;BME280;41299;43.546;16.426;2022-10-26T06:42:00;102157.81;;;15.34;100.00
54822;BME280;41299;43.546;16.426;2022-10-26T06:44:26;102163.91;;;15.36;100.00
54822;BME280;41299;43.546;16.426;2022-10-26T06:51:57;102158.88;;;15.56;100.00
54822;BME280;41299;43.546;16.426;2022-10-26T06:56:51;102164.09;;;15.62;100.00
54822;BME280;41299;43.546;16.426;2022-10-26T06:59:21;102166.72;;;15.67;100.00
54822;BME280;41299;43.546;16.426;2022-10-26T07:01:49;102177.16;;;15.72;100.00
54822;BME280;41299;43.546;16.426;2022-10-26T07:04:14;102176.34;;;15.80;100.00
54822;BME280;41299;43.546;16.426;2022-10-26T07:06:40;102168.59;;;15.87;100.00
54822;BME280;41299;43.546;16.426;2022-10-26T07:09:05;102169.53;;;15.93;100.00
54822;BME280;41299;43.546;16.426;2022-10-26T07:11:31;102165.25;;;16.02;100.00
54822;BME280;41299;43.546;16.426;2022-10-26T07:13:56;102176.56;;;16.10;100.00
54822;BME280;41299;43.546;16.426;2022-10-26T07:16:21;102177.47;;;16.15;100.00
54822;BME280;41299;43.546;16.426;2022-10-26T07:18:47;102178.38;;;16.21;100.00
54822;BME280;41299;43.546;16.426;2022-10-26T07:21:12;102181.88;;;16.26;100.00
54822;BME280;41299;43.546;16.426;2022-10-26T07:23:37;102182.75;;;16.29;100.00
54822;BME280;41299;43.546;16.426;2022-10-26T07:26:03;102189.69;;;16.35;100.00
54822;BME280;41299;43.546;16.426;2022-10-26T07:28:28;102185.38;;;16.40;100.00
54822;BME280;41299;43.546;16.426;2022-10-26T07:30:53;102180.19;;;16.46;100.00
54822;BME280;41299;43.546;16.426;2022-10-26T07:33:18;102178.50;;;16.49;100.00
54822;BME280;41299;43.546;16.426;2022-10-26T07:35:44;102181.13;;;16.56;100.00
54822;BME280;41299;43.546;16.426;2022-10-26T07:38:09;102189.84;;;16.62;100.00
54822;BME280;41299;43.546;16.426;2022-10-26T07:40:36;102186.34;;;16.66;100.00
54822;BME280;41299;43.546;16.426;2022-10-26T07:43:02;102185.50;;;16.71;100.00
54822;BME280;41299;43.546;16.426;2022-10-26T07:45:27;102188.16;;;16.79;100.00
54822;BME280;41299;43.546;16.426;2022-10-26T07:47:56;102193.34;;;16.87;100.00
54822;BME280;41299;43.546;16.426;2022-10-26T07:50:21;102191.63;;;16.94;100.00
54822;BME280;41299;43.546;16.426;2022-10-26T07:52:47;102184.72;;;17.02;100.00
54822;BME280;41299;43.546;16.426;2022-10-26T07:55:12;102184.75;;;17.13;100.00
54822;BME280;41299;43.546;16.426;2022-10-26T07:57:38;102180.44;;;17.20;100.00
54822;BME280;41299;43.546;16.426;2022-10-26T08:00:03;102184.78;;;17.30;100.00
54822;BME280;41299;43.546;16.426;2022-10-26T08:02:29;102185.63;;;17.43;100.00
54822;BME280;41299;43.546;16.426;2022-10-26T08:04:55;102186.53;;;17.53;100.00
54822;BME280;41299;43.546;16.426;2022-10-26T08:07:20;102191.72;;;17.62;100.00
54822;BME280;41299;43.546;16.426;2022-10-26T08:09:45;102196.94;;;17.72;100.00
54822;BME280;41299;43.546;16.426;2022-10-26T08:12:11;102189.97;;;17.77;100.00
54822;BME280;41299;43.546;16.426;2022-10-26T08:14:40;102192.59;;;17.85;100.00
54822;BME280;41299;43.546;16.426;2022-10-26T08:17:05;102197.78;;;17.89;100.00
54822;BME280;41299;43.546;16.426;2022-10-26T08:19:30;102194.31;;;17.93;100.00
54822;BME280;41299;43.546;16.426;2022-10-26T08:21:56;102197.78;;;17.97;100.00
54822;BME280;41299;43.546;16.426;2022-10-26T08:24:21;102193.41;;;18.02;100.00
54822;BME280;41299;43.546;16.426;2022-10-26T08:26:46;102195.16;;;18.08;100.00
54822;BME280;41299;43.546;16.426;2022-10-26T08:29:11;102201.25;;;18.12;100.00
54822;BME280;41299;43.546;16.426;2022-10-26T08:31:37;102197.75;;;18.17;100.00
54822;BME280;41299;43.546;16.426;2022-10-26T08:34:02;102198.63;;;18.23;100.00
54822;BME280;41299;43.546;16.426;2022-10-26T08:36:28;102195.97;;;18.29;100.00
54822;BME280;41299;43.546;16.426;2022-10-26T08:38:53;102196.84;;;18.34;100.00
54822;BME280;41299;43.546;16.426;2022-10-26T08:41:25;102194.19;;;18.39;100.00
54822;BME280;41299;43.546;16.426;2022-10-26T08:43:55;102189.81;;;18.45;100.00
54822;BME280;41299;43.546;16.426;2022-10-26T08:46:56;102188.03;;;18.54;100.00
54822;BME280;41299;43.546;16.426;2022-10-26T08:51:43;102191.47;;;18.64;100.00
54822;BME280;41299;43.546;16.426;2022-10-26T08:56:38;102191.44;;;18.75;100.00
54822;BME280;41299;43.546;16.426;2022-10-26T09:02:03;102181.75;;;18.91;100.00
54822;BME280;41299;43.546;16.426;2022-10-26T09:04:34;102181.66;;;19.02;100.00
54822;BME280;41299;43.546;16.426;2022-10-26T09:12:06;102179.81;;;19.22;100.00
54822;BME280;41299;43.546;16.426;2022-10-26T09:14:38;102179.75;;;19.30;100.00
54822;BME280;41299;43.546;16.426;2022-10-26T09:22:30;102182.19;;;19.53;100.00
54822;BME280;41299;43.546;16.426;2022-10-26T09:24:59;102185.59;;;19.60;100.00
54822;BME280;41299;43.546;16.426;2022-10-26T09:27:27;102191.63;;;19.67;100.00
54822;BME280;41299;43.546;16.426;2022-10-26T09:29:57;102187.22;;;19.72;100.00
54822;BME280;41299;43.546;16.426;2022-10-26T09:32:37;102193.25;;;19.80;100.00
54822;BME280;41299;43.546;16.426;2022-10-26T09:35:08;102197.56;;;19.88;100.00
54822;BME280;41299;43.546;16.426;2022-10-26T09:37:38;102182.66;;;19.93;100.00
54822;BME280;41299;43.546;16.426;2022-10-26T09:42:41;102188.66;;;20.06;100.00
54822;BME280;41299;43.546;16.426;2022-10-26T09:47:41;102180.66;;;20.18;100.00
54822;BME280;41299;43.546;16.426;2022-10-26T09:50:28;102188.47;;;20.23;100.00
54822;BME280;41299;43.546;16.426;2022-10-26T09:52:55;102185.81;;;20.26;100.00
54822;BME280;41299;43.546;16.426;2022-10-26T09:55:21;102179.66;;;20.27;100.00
54822;BME280;41299;43.546;16.426;2022-10-26T09:57:47;102170.00;;;20.32;100.00
54822;BME280;41299;43.546;16.426;2022-10-26T10:00:14;102180.38;;;20.40;100.00
54822;BME280;41299;43.546;16.426;2022-10-26T10:02:41;102182.97;;;20.45;100.00
54822;BME280;41299;43.546;16.426;2022-10-26T10:07:50;102186.31;;;20.56;100.00
54822;BME280;41299;43.546;16.426;2022-10-26T10:10:19;102194.97;;;20.62;100.00
54822;BME280;41299;43.546;16.426;2022-10-26T10:12:45;102187.97;;;20.64;100.00
54822;BME280;41299;43.546;16.426;2022-10-26T10:15:18;102177.38;;;20.70;100.00
54822;BME280;41299;43.546;16.426;2022-10-26T10:17:50;102181.66;;;20.77;100.00
54822;BME280;41299;43.546;16.426;2022-10-26T10:20:20;102182.47;;;20.81;100.00
54822;BME280;41299;43.546;16.426;2022-10-26T10:22:53;102181.59;;;20.82;100.00
54822;BME280;41299;43.546;16.426;2022-10-26T10:25:25;102174.53;;;20.89;100.00
54822;BME280;41299;43.546;16.426;2022-10-26T10:27:52;102181.44;;;20.94;100.00
54822;BME280;41299;43.546;16.426;2022-10-26T10:30:23;102167.44;;;20.95;100.00
54822;BME280;41299;43.546;16.426;2022-10-26T10:33:05;102180.53;;;20.97;100.00
54822;BME280;41299;43.546;16.426;2022-10-26T10:35:30;102175.19;;;21.05;100.00
54822;BME280;41299;43.546;16.426;2022-10-26T10:37:56;102166.31;;;21.10;100.00
54822;BME280;41299;43.546;16.426;2022-10-26T10:40:22;102166.28;;;21.13;100.00
54822;BME280;41299;43.546;16.426;2022-10-26T10:42:49;102169.75;;;21.16;100.00
54822;BME280;41299;43.546;16.426;2022-10-26T10:45:18;102173.19;;;21.18;100.00
54822;BME280;41299;43.546;16.426;2022-10-26T10:47:56;102173.09;;;21.24;100.00
54822;BME280;41299;43.546;16.426;2022-10-26T10:50:22;102167.00;;;21.22;100.00
54822;BME280;41299;43.546;16.426;2022-10-26T10:52:47;102172.25;;;21.23;100.00
54822;BME280;41299;43.546;16.426;2022-10-26T10:57:44;102169.38;;;21.37;100.00
54822;BME280;41299;43.546;16.426;2022-10-26T11:00:14;102166.69;;;21.40;100.00
54822;BME280;41299;43.546;16.426;2022-10-26T11:10:43;102151.34;;;21.67;100.00
54822;BME280;41299;43.546;16.426;2022-10-26T11:13:24;102159.09;;;21.77;100.00
54822;BME280;41299;43.546;16.426;2022-10-26T11:15:55;102156.31;;;21.85;100.00
54822;BME280;41299;43.546;16.426;2022-10-26T11:19:06;102149.19;;;21.91;100.00
54822;BME280;41299;43.546;16.426;2022-10-26T11:23:42;102149.00;;;22.01;100.00
54822;BME280;41299;43.546;16.426;2022-10-26T11:26:14;102148.94;;;22.04;100.00
54822;BME280;41299;43.546;16.426;2022-10-26T11:31:09;102141.63;;;22.20;100.00
54822;BME280;41299;43.546;16.426;2022-10-26T11:33:40;102137.97;;;22.26;100.00
54822;BME280;41299;43.546;16.426;2022-10-26T11:36:11;102133.56;;;22.28;100.00
54822;BME280;41299;43.546;16.426;2022-10-26T11:38:48;102135.19;;;22.33;100.00
54822;BME280;41299;43.546;16.426;2022-10-26T11:41:28;102130.72;;;22.37;100.00
54822;BME280;41299;43.546;16.426;2022-10-26T11:46:31;102134.31;;;22.33;100.00
54822;BME280;41299;43.546;16.426;2022-10-26T11:49:13;102130.75;;;22.36;100.00
54822;BME280;41299;43.546;16.426;2022-10-26T11:54:27;102141.03;;;22.46;100.00
54822;BME280;41299;43.546;16.426;2022-10-26T11:56:54;102140.09;;;22.49;100.00
54822;BME280;41299;43.546;16.426;2022-10-26T11:59:22;102131.34;;;22.49;100.00
54822;BME280;41299;43.546;16.426;2022-10-26T12:01:50;102132.13;;;22.54;100.00
54822;BME280;41299;43.546;16.426;2022-10-26T12:04:17;102129.34;;;22.62;100.00
54822;BME280;41299;43.546;16.426;2022-10-26T12:06:43;102134.63;;;22.60;100.00
54822;BME280;41299;43.546;16.426;2022-10-26T12:09:15;102120.66;;;22.58;100.00
54822;BME280;41299;43.546;16.426;2022-10-26T12:11:45;102124.00;;;22.65;100.00
54822;BME280;41299;43.546;16.426;2022-10-26T12:17:01;102127.22;;;22.78;100.00
54822;BME280;41299;43.546;16.426;2022-10-26T12:19:30;102126.19;;;22.85;100.00
54822;BME280;41299;43.546;16.426;2022-10-26T12:22:00;102125.16;;;22.91;100.00
54822;BME280;41299;43.546;16.426;2022-10-26T12:24:26;102120.69;;;22.94;100.00
54822;BME280;41299;43.546;16.426;2022-10-26T12:29:24;102120.44;;;23.05;100.00
54822;BME280;41299;43.546;16.426;2022-10-26T12:31:50;102112.44;;;23.08;100.00
54822;BME280;41299;43.546;16.426;2022-10-26T12:37:09;102109.84;;;23.07;100.00
54822;BME280;41299;43.546;16.426;2022-10-26T12:39:41;102107.00;;;23.14;100.00
54822;BME280;41299;43.546;16.426;2022-10-26T12:47:08;102104.66;;;23.04;100.00
54822;BME280;41299;43.546;16.426;2022-10-26T12:52:19;102095.69;;;23.12;100.00
54822;BME280;41299;43.546;16.426;2022-10-26T12:54:48;102099.25;;;23.10;100.00
54822;BME280;41299;43.546;16.426;2022-10-26T12:59:46;102099.16;;;23.13;100.00
54822;BME280;41299;43.546;16.426;2022-10-26T13:02:28;102100.91;;;23.14;100.00
54822;BME280;41299;43.546;16.426;2022-10-26T13:07:40;102100.97;;;23.11;100.00
54822;BME280;41299;43.546;16.426;2022-10-26T13:12:53;102103.22;;;23.26;100.00
54822;BME280;41299;43.546;16.426;2022-10-26T13:15:20;102102.22;;;23.31;100.00
54822;BME280;41299;43.546;16.426;2022-10-26T13:17:57;102098.47;;;23.41;100.00
54822;BME280;41299;43.546;16.426;2022-10-26T13:20:23;102098.38;;;23.44;100.00
54822;BME280;41299;43.546;16.426;2022-10-26T13:22:49;102093.13;;;23.44;100.00
54822;BME280;41299;43.546;16.426;2022-10-26T13:25:32;102103.84;;;23.36;100.00
54822;BME280;41299;43.546;16.426;2022-10-26T13:28:05;102090.28;;;23.17;100.00
54822;BME280;41299;43.546;16.426;2022-10-26T13:33:01;102100.22;;;23.06;100.00
54822;BME280;41299;43.546;16.426;2022-10-26T13:35:26;102099.16;;;23.13;100.00
54822;BME280;41299;43.546;16.426;2022-10-26T13:37:53;102106.16;;;23.14;100.00
54822;BME280;41299;43.546;16.426;2022-10-26T13:40:27;102107.63;;;23.24;100.00
54822;BME280;41299;43.546;16.426;2022-10-26T13:42:54;102098.91;;;23.24;100.00
54822;BME280;41299;43.546;16.426;2022-10-26T13:45:25;102094.41;;;23.27;100.00
54822;BME280;41299;43.546;16.426;2022-10-26T13:50:45;102104.91;;;23.29;100.00
54822;BME280;41299;43.546;16.426;2022-10-26T13:53:06;102109.25;;;23.32;100.00
54822;BME280;41299;43.546;16.426;2022-10-26T13:55:35;102098.72;;;23.32;100.00
54822;BME280;41299;43.546;16.426;2022-10-26T14:03:26;102106.53;;;23.35;100.00
54822;BME280;41299;43.546;16.426;2022-10-26T14:05:51;102109.16;;;23.35;100.00
54822;BME280;41299;43.546;16.426;2022-10-26T14:08:17;102102.16;;;23.34;100.00
54822;BME280;41299;43.546;16.426;2022-10-26T14:10:47;102097.81;;;23.33;100.00
54822;BME280;41299;43.546;16.426;2022-10-26T14:13:16;102104.06;;;23.27;100.00
54822;BME280;41299;43.546;16.426;2022-10-26T14:15:45;102109.44;;;23.22;100.00
54822;BME280;41299;43.546;16.426;2022-10-26T14:18:16;102110.34;;;23.21;100.00
54822;BME280;41299;43.546;16.426;2022-10-26T14:20:46;102109.53;;;23.19;100.00
54822;BME280;41299;43.546;16.426;2022-10-26T14:26:17;102111.53;;;23.09;100.00
54822;BME280;41299;43.546;16.426;2022-10-26T14:28:44;102110.78;;;23.04;100.00
54822;BME280;41299;43.546;16.426;2022-10-26T14:31:12;102107.28;;;23.05;100.00
54822;BME280;41299;43.546;16.426;2022-10-26T14:33:38;102109.16;;;23.00;100.00
54822;BME280;41299;43.546;16.426;2022-10-26T14:36:03;102105.84;;;22.92;100.00
54822;BME280;41299;43.546;16.426;2022-10-26T14:38:29;102115.78;;;22.79;100.00
54822;BME280;41299;43.546;16.426;2022-10-26T14:40:58;102116.84;;;22.71;100.00
54822;BME280;41299;43.546;16.426;2022-10-26T14:43:23;102120.56;;;22.61;100.00
54822;BME280;41299;43.546;16.426;2022-10-26T14:45:50;102117.25;;;22.54;100.00
54822;BME280;41299;43.546;16.426;2022-10-26T14:48:24;102119.81;;;22.56;100.00